Time;durP1;ratioP1;P1;durP2;ratioP2;P2;SDS_P1;SDS_P2;PMS_P1;PMS_P2;Temp;Humidity;BMP_temperature;BMP_pressure;BME280_temperature;BME280_humidity;BME280_pressure;Samples;Min_cycle;Max_cycle;Signal;HPM_P1;HPM_P2
2022/10/29 00:00:56;;;;;;;3.65;1.90;;;;;;;6.39;75.61;97602.50;5093777;28;20048;-62
2022/10/29 00:03:24;;;;;;;2.50;1.88;;;;;;;6.39;75.65;97599.91;5093758;28;20485;-61
2022/10/29 00:05:57;;;;;;;2.35;1.83;;;;;;;6.38;75.25;97607.69;5093778;28;20044;-62
2022/10/29 00:08:25;;;;;;;3.85;1.75;;;;;;;6.38;75.24;97610.31;5093702;28;20094;-61
2022/10/29 00:10:52;;;;;;;2.22;1.90;;;;;;;6.34;75.64;97601.63;5093707;28;20105;-62
2022/10/29 00:13:19;;;;;;;1.67;1.55;;;;;;;6.34;75.56;97611.16;5093873;28;20048;-61
2022/10/29 00:15:46;;;;;;;4.13;1.85;;;;;;;6.34;75.97;97606.84;5093647;28;20044;-61
2022/10/29 00:18:13;;;;;;;2.58;1.70;;;;;;;6.35;75.64;97610.31;5093508;28;20086;-62
2022/10/29 00:20:40;;;;;;;3.30;1.63;;;;;;;6.34;74.82;97605.97;5093485;28;20078;-61
2022/10/29 00:23:09;;;;;;;3.97;1.98;;;;;;;6.27;74.50;97607.72;5093319;28;20402;-61
2022/10/29 00:25:36;;;;;;;2.47;1.75;;;;;;;6.23;74.30;97606.88;5093448;28;20048;-61
2022/10/29 00:28:03;;;;;;;2.20;1.65;;;;;;;6.23;74.17;97604.25;5093567;28;20093;-61
2022/10/29 00:30:31;;;;;;;3.33;2.25;;;;;;;6.16;74.14;97597.38;5093493;28;20165;-61
2022/10/29 00:32:58;;;;;;;2.15;1.60;;;;;;;6.15;73.92;97596.53;5093379;28;20048;-61
2022/10/29 00:35:25;;;;;;;6.97;1.75;;;;;;;6.14;74.35;97599.97;5093341;28;20085;-61
2022/10/29 00:37:53;;;;;;;5.25;1.45;;;;;;;6.12;74.99;97591.34;5093059;28;20097;-61
2022/10/29 00:40:22;;;;;;;1.88;1.65;;;;;;;6.03;75.08;97593.91;5092826;28;20141;-61
2022/10/29 00:42:49;;;;;;;2.15;1.50;;;;;;;5.86;75.50;97596.53;5093301;28;20048;-61
2022/10/29 00:45:20;;;;;;;2.70;1.73;;;;;;;5.86;76.41;97596.53;5093163;28;20520;-61
2022/10/29 00:47:52;;;;;;;2.35;1.67;;;;;;;5.91;76.15;97587.03;5093076;28;20048;-61
2022/10/29 00:50:22;;;;;;;2.58;1.60;;;;;;;5.90;76.31;97599.13;5093119;28;20048;-61
2022/10/29 00:52:50;;;;;;;;;;;;;;;5.87;76.67;97598.28;5093567;28;20063;-61
2022/10/29 00:55:19;;;;;;;2.15;1.55;;;;;;;5.85;76.04;97594.81;5093178;28;19930;-61
2022/10/29 00:57:52;;;;;;;2.13;1.92;;;;;;;5.82;76.13;97582.72;5093176;28;21167;-61
2022/10/29 01:00:21;;;;;;;2.47;1.70;;;;;;;5.80;76.71;97584.44;5093005;28;20575;-61
2022/10/29 01:02:49;;;;;;;2.13;1.83;;;;;;;5.77;76.46;97585.31;5093044;28;20048;-61
2022/10/29 01:05:20;;;;;;;2.42;1.98;;;;;;;5.78;77.19;97584.44;5092984;28;20047;-61
2022/10/29 01:07:47;;;;;;;;;;;;;;;5.74;77.06;97585.31;5093432;28;20501;-61
2022/10/29 01:10:16;;;;;;;1.92;1.63;;;;;;;5.73;76.23;97582.72;5093042;28;19920;-60
2022/10/29 01:13:07;;;;;;;6.22;1.65;;;;;;;5.60;76.72;97584.50;5093025;28;20113;-62
2022/10/29 01:15:37;;;;;;;;;;;;;;;5.57;77.10;97581.03;5093381;28;20413;-61
2022/10/29 01:18:14;;;;;;;2.60;2.00;;;;;;;5.58;76.54;97576.69;5093064;28;19922;-61
2022/10/29 01:21:04;;;;;;;2.47;2.08;;;;;;;5.58;75.87;97571.50;5092782;28;20508;-62
2022/10/29 01:23:50;;;;;;;2.88;1.88;;;;;;;5.56;75.36;97571.50;5092752;28;20490;-61
2022/10/29 01:27:02;;;;;;;2.83;1.98;;;;;;;5.55;75.69;97571.50;5092904;28;20091;-61
2022/10/29 01:29:47;;;;;;;6.38;2.30;;;;;;;5.46;76.97;97564.59;5030727;28;20080;-61
2022/10/29 01:32:24;;;;;;;4.63;2.15;;;;;;;5.41;77.65;97558.53;5085802;28;20056;-61
2022/10/29 01:34:59;;;;;;;2.03;1.83;;;;;;;5.42;77.49;97555.09;5092819;28;20054;-61
2022/10/29 01:37:32;;;;;;;2.28;1.90;;;;;;;5.43;77.41;97560.28;5092849;28;20075;-61
2022/10/29 01:40:06;;;;;;;2.30;1.80;;;;;;;5.43;77.52;97555.09;5092664;28;20044;-61
2022/10/29 01:42:38;;;;;;;2.20;2.00;;;;;;;5.39;78.25;97560.28;5092747;28;20040;-61
2022/10/29 01:45:12;;;;;;;3.28;1.92;;;;;;;5.25;78.87;97553.38;5092887;28;20046;-60
2022/10/29 01:47:44;;;;;;;3.85;2.35;;;;;;;5.21;79.55;97553.38;5092629;28;20125;-61
2022/10/29 01:50:16;;;;;;;2.22;2.03;;;;;;;5.28;79.39;97548.19;5093771;28;20136;-61
2022/10/29 01:52:45;;;;;;;3.13;1.88;;;;;;;5.33;78.59;97545.59;5096222;28;20061;-61
2022/10/29 01:55:16;;;;;;;3.20;2.08;;;;;;;5.38;78.19;97542.97;5096315;28;20584;-60
2022/10/29 01:57:43;;;;;;;3.60;2.10;;;;;;;5.42;78.01;97539.53;5096254;28;20059;-61
2022/10/29 02:00:13;;;;;;;4.13;2.20;;;;;;;5.39;78.55;97532.59;5096133;28;20105;-61
2022/10/29 02:02:54;;;;;;;2.15;2.00;;;;;;;5.48;77.68;97533.47;5096251;28;20044;-61
2022/10/29 02:05:29;;;;;;;5.63;2.42;;;;;;;5.48;77.36;97530.88;5096058;28;20066;-61
2022/10/29 02:08:03;;;;;;;2.70;2.00;;;;;;;5.47;76.86;97532.59;5096157;28;20051;-61
2022/10/29 02:10:39;;;;;;;2.35;1.73;;;;;;;5.50;76.33;97532.56;5096001;28;20062;-61
2022/10/29 02:13:08;;;;;;;5.32;2.67;;;;;;;5.54;76.05;97541.25;5095805;28;20048;-61
2022/10/29 02:15:42;;;;;;;4.43;2.15;;;;;;;5.53;76.19;97539.50;5095977;28;20123;-61
2022/10/29 02:18:11;;;;;;;3.15;2.10;;;;;;;5.55;76.28;97530.84;5095862;28;20131;-61
2022/10/29 02:20:42;;;;;;;3.70;2.60;;;;;;;5.53;76.04;97537.78;5095683;28;20101;-61
2022/10/29 02:23:09;;;;;;;;;;;;;;;5.56;76.01;97537.75;5095970;28;20052;-61
2022/10/29 02:25:36;;;;;;;5.07;2.30;;;;;;;5.47;76.34;97540.38;5095747;28;20011;-62
2022/10/29 02:28:03;;;;;;;9.98;2.72;;;;;;;5.42;76.80;97537.78;5095715;28;20097;-61
2022/10/29 02:30:31;;;;;;;2.47;2.08;;;;;;;5.39;77.27;97532.59;5095770;28;20056;-61
2022/10/29 02:32:58;;;;;;;2.70;2.17;;;;;;;5.30;76.83;97530.03;5095625;28;20048;-61
2022/10/29 02:35:27;;;;;;;4.68;2.45;;;;;;;5.18;77.84;97523.97;5095385;28;20097;-60
2022/10/29 02:37:54;;;;;;;2.58;1.83;;;;;;;5.11;78.14;97524.84;5095564;28;20393;-60
2022/10/29 02:40:21;;;;;;;1.92;1.55;;;;;;;5.10;78.34;97522.25;5095645;28;20052;-61
2022/10/29 02:42:48;;;;;;;3.22;2.10;;;;;;;5.09;77.93;97518.78;5095397;28;20051;-60
2022/10/29 02:45:15;;;;;;;4.05;2.42;;;;;;;5.10;78.25;97519.66;5095225;28;20478;-60
2022/10/29 02:47:43;;;;;;;3.58;2.45;;;;;;;5.05;78.56;97520.50;5095387;28;20047;-61
2022/10/29 02:50:10;;;;;;;3.67;1.90;;;;;;;4.98;78.88;97516.19;5095365;28;20544;-60
2022/10/29 02:52:39;;;;;;;3.55;2.67;;;;;;;4.93;79.08;97518.78;5095216;28;20048;-61
2022/10/29 02:55:07;;;;;;;4.07;2.47;;;;;;;4.97;79.18;97513.59;5095182;28;20044;-61
2022/10/29 02:57:34;;;;;;;3.42;2.50;;;;;;;4.95;79.42;97516.19;5095215;28;20044;-61
2022/10/29 03:00:01;;;;;;;3.25;2.13;;;;;;;4.96;78.96;97515.31;5095098;28;20051;-61
2022/10/29 03:02:29;;;;;;;5.93;2.35;;;;;;;4.96;79.44;97517.91;5094013;28;20063;-60
2022/10/29 03:04:56;;;;;;;3.78;2.35;;;;;;;4.96;79.03;97520.50;5094900;28;20047;-61
2022/10/29 03:07:23;;;;;;;2.42;2.22;;;;;;;4.96;79.39;97519.66;5094901;28;20047;-60
2022/10/29 03:09:51;;;;;;;2.35;2.15;;;;;;;4.98;78.91;97516.19;5094912;28;20044;-61
2022/10/29 03:12:18;;;;;;;6.05;2.53;;;;;;;4.99;78.75;97517.03;5094807;28;20557;-60
2022/10/29 03:14:45;;;;;;;3.00;2.40;;;;;;;5.01;78.46;97518.78;5094856;28;20083;-60
2022/10/29 03:17:12;;;;;;;3.63;2.28;;;;;;;4.97;78.46;97516.19;5094769;28;20098;-60
2022/10/29 03:19:39;;;;;;;4.57;2.15;;;;;;;4.89;79.27;97518.78;5094618;28;20082;-60
2022/10/29 03:22:06;;;;;;;3.03;2.28;;;;;;;4.93;79.15;97517.91;5094493;28;20062;-60
2022/10/29 03:24:33;;;;;;;3.15;2.08;;;;;;;4.95;79.47;97515.31;5094658;28;20051;-60
2022/10/29 03:27:02;;;;;;;3.30;2.20;;;;;;;4.93;79.21;97517.91;5094527;28;20813;-61
2022/10/29 03:29:30;;;;;;;5.50;2.30;;;;;;;4.97;79.26;97516.19;5094499;28;20044;-60
2022/10/29 03:31:57;;;;;;;3.78;2.42;;;;;;;4.99;79.11;97509.25;5094314;28;20123;-60
2022/10/29 03:34:24;;;;;;;3.25;2.45;;;;;;;4.99;79.17;97498.88;5094347;28;20109;-61
2022/10/29 03:36:51;;;;;;;1.95;1.85;;;;;;;5.00;79.53;97501.47;5094415;28;20440;-61
2022/10/29 03:39:18;;;;;;;7.25;2.67;;;;;;;5.05;79.80;97504.09;5094353;28;20044;-61
2022/10/29 03:41:46;;;;;;;3.20;2.20;;;;;;;5.05;79.72;97499.75;5094264;28;20414;-60
2022/10/29 03:44:15;;;;;;;2.15;1.95;;;;;;;5.05;79.92;97499.75;5094159;28;20063;-61
2022/10/29 03:46:42;;;;;;;3.55;2.17;;;;;;;5.00;80.16;97493.69;5094398;28;20102;-61
2022/10/29 03:49:09;;;;;;;2.78;2.17;;;;;;;4.99;80.06;97499.75;5094125;28;20054;-61
2022/10/29 03:51:36;;;;;;;4.03;3.05;;;;;;;5.02;79.87;97486.78;5094112;28;20044;-61
2022/10/29 03:54:04;;;;;;;3.35;2.00;;;;;;;5.09;79.58;97486.81;5094060;28;20067;-61
2022/10/29 03:56:31;;;;;;;3.42;2.22;;;;;;;5.11;79.29;97488.53;5093950;28;20051;-61
2022/10/29 03:58:59;;;;;;;1.83;1.60;;;;;;;5.08;79.00;97488.53;5093862;28;20052;-61
2022/10/29 04:01:27;;;;;;;3.58;2.50;;;;;;;5.06;79.75;97488.53;5093870;28;20059;-61
2022/10/29 04:03:54;;;;;;;2.55;2.35;;;;;;;5.02;79.72;97486.78;5093884;28;20459;-61
2022/10/29 04:06:21;;;;;;;2.22;2.00;;;;;;;4.98;80.37;97484.22;5093856;28;20044;-61
2022/10/29 04:08:48;;;;;;;4.20;2.55;;;;;;;4.99;80.33;97488.50;5093712;28;20649;-62
2022/10/29 04:11:15;;;;;;;2.72;2.33;;;;;;;4.98;80.47;97482.50;5093890;28;20494;-61
2022/10/29 04:13:43;;;;;;;5.25;2.38;;;;;;;5.02;79.83;97488.53;5093740;28;20083;-61
2022/10/29 04:16:10;;;;;;;4.80;3.03;;;;;;;5.02;80.22;97483.34;5093701;28;20123;-61
2022/10/29 04:18:39;;;;;;;3.08;2.20;;;;;;;5.08;80.16;97485.09;5093503;28;20047;-61
2022/10/29 04:21:06;;;;;;;2.58;2.20;;;;;;;5.08;79.69;97488.53;5093222;28;20052;-61
2022/10/29 04:23:33;;;;;;;2.30;2.10;;;;;;;5.01;80.02;97485.06;5093493;28;20044;-61
2022/10/29 04:26:00;;;;;;;3.42;2.05;;;;;;;5.06;79.85;97490.28;5093614;28;20505;-61
2022/10/29 04:28:28;;;;;;;3.85;2.20;;;;;;;4.98;79.95;97485.06;5093781;28;20044;-62
2022/10/29 04:30:55;;;;;;;2.92;2.13;;;;;;;4.92;80.25;97485.06;5093497;28;20044;-62
2022/10/29 04:33:22;;;;;;;3.50;2.50;;;;;;;4.89;81.26;97488.53;5093454;28;20504;-61
2022/10/29 04:35:54;;;;;;;3.72;2.67;;;;;;;4.93;81.57;97491.97;5093404;28;20048;-61
2022/10/29 04:38:22;;;;;;;12.43;2.55;;;;;;;4.96;81.36;97494.56;5093236;28;20048;-61
2022/10/29 04:40:49;;;;;;;4.57;2.47;;;;;;;4.95;81.04;97491.97;5093320;28;20052;-61
2022/10/29 04:43:16;;;;;;;3.97;2.33;;;;;;;4.95;81.03;97495.44;5093310;28;20048;-62
2022/10/29 04:45:44;;;;;;;2.38;2.17;;;;;;;5.00;80.01;97495.44;5093230;28;20494;-61
2022/10/29 04:48:12;;;;;;;2.10;1.90;;;;;;;5.00;80.59;97496.28;5093200;28;20074;-61
2022/10/29 04:50:39;;;;;;;3.28;2.13;;;;;;;5.01;80.26;97495.44;5093048;28;20055;-61
2022/10/29 04:53:10;;;;;;;2.72;2.42;;;;;;;4.99;80.57;97499.75;5093131;28;20052;-61
2022/10/29 04:55:39;;;;;;;4.18;2.30;;;;;;;4.95;80.83;97495.44;5093234;28;20054;-61
2022/10/29 04:58:08;;;;;;;3.03;2.50;;;;;;;4.85;81.46;97497.16;5093114;28;20130;-61
2022/10/29 05:00:36;;;;;;;3.35;2.42;;;;;;;4.88;82.00;97501.50;5092990;28;20044;-61
2022/10/29 05:03:04;;;;;;;7.10;3.45;;;;;;;4.84;83.21;97500.63;5092945;28;20091;-61
2022/10/29 05:05:31;;;;;;;7.47;3.13;;;;;;;4.97;82.85;97501.47;5093062;28;20045;-61
2022/10/29 05:07:59;;;;;;;2.63;2.33;;;;;;;5.03;82.74;97496.31;5093099;28;20044;-61
2022/10/29 05:10:30;;;;;;;5.10;2.63;;;;;;;5.02;81.80;97499.75;5093003;28;20055;-61
2022/10/29 05:12:58;;;;;;;3.78;2.58;;;;;;;5.06;81.44;97501.50;5092975;28;20048;-61
2022/10/29 05:15:26;;;;;;;4.05;2.70;;;;;;;5.11;81.19;97503.22;5092907;28;20044;-61
2022/10/29 05:17:54;;;;;;;2.42;2.10;;;;;;;5.11;81.00;97506.69;5092816;28;20409;-61
2022/10/29 05:20:21;;;;;;;3.53;2.60;;;;;;;5.10;80.83;97497.19;5092960;28;20048;-61
2022/10/29 05:22:48;;;;;;;5.15;3.08;;;;;;;5.17;81.53;97503.22;5092698;28;20048;-61
2022/10/29 05:25:16;;;;;;;3.03;2.03;;;;;;;5.21;81.97;97499.75;5094392;28;20105;-61
2022/10/29 05:27:45;;;;;;;4.00;2.65;;;;;;;5.87;82.52;97500.44;5096886;28;20051;-61
2022/10/29 05:30:13;;;;;;;3.22;2.53;;;;;;;7.24;77.82;97506.56;5096841;28;20409;-61
2022/10/29 05:32:40;;;;;;;2.58;1.98;;;;;;;8.86;72.04;97503.75;5096786;28;20052;-61
2022/10/29 05:35:08;;;;;;;5.60;2.38;;;;;;;10.47;64.84;97503.38;5096739;28;20044;-61
2022/10/29 05:37:35;;;;;;;2.70;1.80;;;;;;;11.99;60.12;97497.88;5096711;28;20056;-62
2022/10/29 05:40:03;;;;;;;4.43;1.50;;;;;;;13.38;55.33;97505.00;5096624;28;20043;-61
2022/10/29 05:42:30;;;;;;;2.28;1.38;;;;;;;14.73;51.22;97508.94;5096417;28;20097;-61
2022/10/29 05:44:59;;;;;;;2.78;1.38;;;;;;;15.71;47.78;97506.69;5096462;28;20040;-60
2022/10/29 05:47:26;;;;;;;1.98;1.77;;;;;;;16.67;46.11;97509.47;5096392;28;20070;-61
2022/10/29 05:49:53;;;;;;;2.10;1.20;;;;;;;17.55;43.37;97508.75;5096539;28;20048;-60
2022/10/29 05:52:21;;;;;;;1.70;1.33;;;;;;;18.38;41.19;97506.28;5096324;28;20500;-62
2022/10/29 05:54:50;;;;;;;1.73;1.48;;;;;;;19.32;39.65;97509.94;5096384;28;20048;-61
2022/10/29 05:57:19;;;;;;;1.52;1.42;;;;;;;20.17;38.41;97508.50;5096196;28;20059;-61
2022/10/29 05:59:47;;;;;;;2.28;1.60;;;;;;;21.06;37.30;97518.88;5096064;28;20052;-61
2022/10/29 06:02:16;;;;;;;2.30;1.60;;;;;;;21.83;35.97;97517.41;5096134;28;20521;-60
2022/10/29 06:04:43;;;;;;;1.50;1.40;;;;;;;22.46;34.61;97519.28;5096225;28;20054;-61
2022/10/29 06:07:10;;;;;;;1.88;1.70;;;;;;;23.32;32.80;97519.31;5096141;28;20079;-61
2022/10/29 06:09:38;;;;;;;3.58;1.83;;;;;;;24.15;31.63;97518.47;5095964;28;20052;-60
2022/10/29 06:12:06;;;;;;;2.33;1.30;;;;;;;24.74;30.20;97521.84;5096003;28;20052;-61
2022/10/29 06:14:34;;;;;;;1.45;1.17;;;;;;;25.35;29.28;97526.81;5095956;28;20040;-61
2022/10/29 06:17:02;;;;;;;1.20;0.93;;;;;;;25.95;28.42;97528.94;5095832;28;20044;-61
2022/10/29 06:19:30;;;;;;;1.70;1.45;;;;;;;26.41;27.83;97515.25;5095884;28;20045;-60
2022/10/29 06:21:58;;;;;;;2.03;1.35;;;;;;;26.87;27.66;97521.03;5095518;28;20051;-60
2022/10/29 06:24:25;;;;;;;2.38;1.23;;;;;;;27.26;27.00;97524.75;5095888;28;20059;-61
2022/10/29 06:26:53;;;;;;;1.45;1.33;;;;;;;27.68;26.81;97514.72;5095727;28;20052;-60
2022/10/29 06:29:21;;;;;;;2.78;1.30;;;;;;;28.16;26.28;97522.84;5095565;28;20048;-61
2022/10/29 06:31:48;;;;;;;1.38;1.27;;;;;;;28.61;25.62;97523.97;5095553;28;20417;-60
2022/10/29 06:34:19;;;;;;;2.03;1.17;;;;;;;29.08;25.27;97525.69;5095875;28;20105;-60
2022/10/29 06:36:48;;;;;;;2.97;1.38;;;;;;;29.55;24.65;97531.88;5094421;28;20486;-60
2022/10/29 06:39:15;;;;;;;2.63;1.50;;;;;;;29.92;24.69;97523.75;5095651;28;20064;-60
2022/10/29 06:41:43;;;;;;;2.80;1.60;;;;;;;30.01;23.96;97531.72;5095434;28;20094;-60
2022/10/29 06:44:10;;;;;;;1.90;1.48;;;;;;;30.32;24.25;97527.72;5095308;28;20051;-61
2022/10/29 06:46:38;;;;;;;2.00;1.40;;;;;;;30.49;24.13;97533.22;5095389;28;20040;-60
2022/10/29 06:49:05;;;;;;;1.92;1.48;;;;;;;30.71;24.14;97520.13;5095316;28;20048;-60
2022/10/29 06:51:33;;;;;;;1.90;1.38;;;;;;;31.26;23.27;97526.88;5095248;28;20044;-61
2022/10/29 06:54:02;;;;;;;4.53;1.90;;;;;;;31.70;23.13;97524.06;5095239;28;20052;-60
2022/10/29 06:56:30;;;;;;;4.30;1.52;;;;;;;32.03;21.87;97527.56;5095197;28;20056;-60
2022/10/29 06:58:58;;;;;;;1.30;1.20;;;;;;;32.38;22.08;97529.19;5095147;28;20044;-61
2022/10/29 07:01:27;;;;;;;2.05;1.63;;;;;;;32.64;21.05;97528.97;5095061;28;20044;-60
2022/10/29 07:03:55;;;;;;;2.33;1.52;;;;;;;32.62;20.64;97531.00;5094902;28;20059;-61
2022/10/29 07:06:22;;;;;;;2.15;1.70;;;;;;;32.98;20.35;97535.03;5095038;28;20067;-60
2022/10/29 07:08:50;;;;;;;3.15;1.60;;;;;;;33.23;19.95;97542.22;5094919;28;20048;-61
2022/10/29 07:11:19;;;;;;;2.33;1.58;;;;;;;33.30;20.52;97535.06;5094946;28;20379;-60
2022/10/29 07:13:46;;;;;;;2.15;1.63;;;;;;;32.92;20.02;97532.22;5094700;28;20048;-61
2022/10/29 07:16:13;;;;;;;3.20;1.30;;;;;;;32.92;19.60;97529.50;5094796;28;20075;-61
2022/10/29 07:18:42;;;;;;;1.65;1.20;;;;;;;33.23;19.73;97534.91;5094677;28;20044;-60
2022/10/29 07:21:09;;;;;;;2.03;1.50;;;;;;;33.60;19.12;97527.06;5094360;28;20048;-61
2022/10/29 07:23:37;;;;;;;1.92;1.33;;;;;;;33.62;19.99;97535.84;5094497;28;20075;-61
2022/10/29 07:26:04;;;;;;;1.50;1.20;;;;;;;33.71;19.92;97533.91;5094667;28;20052;-61
2022/10/29 07:28:33;;;;;;;2.00;1.60;;;;;;;33.28;20.17;97529.81;5094537;28;20044;-61
2022/10/29 07:31:02;;;;;;;1.67;1.30;;;;;;;33.13;20.15;97526.19;5094618;28;20486;-61
2022/10/29 07:33:30;;;;;;;1.92;1.52;;;;;;;33.41;20.15;97525.66;5094411;28;20132;-61
2022/10/29 07:35:59;;;;;;;1.77;1.40;;;;;;;34.03;19.44;97528.38;5094336;28;20537;-58
2022/10/29 07:38:27;;;;;;;1.50;1.40;;;;;;;34.45;19.68;97526.06;5094295;28;20482;-61
2022/10/29 07:40:55;;;;;;;1.88;1.30;;;;;;;34.25;19.29;97525.81;5094319;28;20123;-61
2022/10/29 07:43:23;;;;;;;2.45;1.80;;;;;;;33.49;19.81;97519.31;5094112;28;20052;-61
2022/10/29 07:45:52;;;;;;;4.82;1.70;;;;;;;33.59;19.74;97525.38;5094126;28;20048;-58
2022/10/29 07:48:20;;;;;;;1.92;1.30;;;;;;;33.19;19.58;97524.66;5093814;28;20052;-60
2022/10/29 07:50:48;;;;;;;2.63;1.83;;;;;;;33.24;19.67;97528.50;5094015;28;20048;-60
2022/10/29 07:53:16;;;;;;;2.38;1.50;;;;;;;33.08;20.06;97515.06;5093976;28;20047;-60
2022/10/29 07:55:45;;;;;;;2.65;1.45;;;;;;;32.03;20.92;97524.06;5093998;28;20059;-61
2022/10/29 07:58:13;;;;;;;1.88;1.33;;;;;;;30.94;22.06;97517.69;5094132;28;20048;-60
2022/10/29 08:00:41;;;;;;;3.97;1.42;;;;;;;30.18;22.99;97522.91;5093894;28;20055;-60
2022/10/29 08:03:12;;;;;;;3.72;1.88;;;;;;;29.52;23.16;97519.53;5093894;28;20383;-60
2022/10/29 08:05:41;;;;;;;1.80;1.33;;;;;;;28.65;24.03;97513.75;5093834;28;20070;-60
2022/10/29 08:08:08;;;;;;;2.90;1.48;;;;;;;27.59;25.96;97516.41;5093662;28;20497;-61
2022/10/29 08:10:36;;;;;;;2.60;1.50;;;;;;;26.68;26.93;97512.91;5093645;28;20051;-61
2022/10/29 08:13:08;;;;;;;2.53;1.80;;;;;;;25.83;27.66;97514.75;5093877;28;20048;-60
2022/10/29 08:15:36;;;;;;;2.15;1.73;;;;;;;25.10;29.11;97518.13;5093697;28;20566;-61
2022/10/29 08:18:14;;;;;;;1.70;1.48;;;;;;;24.66;29.71;97515.41;5093735;28;20040;-60
2022/10/29 08:20:42;;;;;;;1.42;1.33;;;;;;;24.34;30.79;97504.50;5093696;28;20478;-60
2022/10/29 08:23:10;;;;;;;2.05;1.60;;;;;;;24.05;30.60;97510.28;5093429;28;20121;-61
2022/10/29 08:25:40;;;;;;;2.70;1.35;;;;;;;23.84;31.97;97500.31;5093651;28;20090;-60
2022/10/29 08:28:09;;;;;;;1.92;1.35;;;;;;;23.78;31.71;97499.94;5093427;28;20048;-61
2022/10/29 08:30:37;;;;;;;1.30;1.20;;;;;;;23.55;31.64;97494.53;5093631;28;20131;-60
2022/10/29 08:33:05;;;;;;;5.15;1.40;;;;;;;23.34;31.62;97496.03;5093560;28;20052;-61
2022/10/29 08:35:34;;;;;;;2.70;1.25;;;;;;;23.02;32.89;97496.59;5093325;28;20044;-60
2022/10/29 08:38:03;;;;;;;1.48;1.33;;;;;;;22.97;33.38;97498.78;5093330;28;20486;-60
2022/10/29 08:40:39;;;;;;;2.60;1.75;;;;;;;22.94;33.28;97497.16;5093217;28;20060;-60
2022/10/29 08:43:41;;;;;;;3.83;1.77;;;;;;;22.96;33.48;97497.91;5093240;28;20052;-61
2022/10/29 08:46:18;;;;;;;1.90;1.52;;;;;;;22.83;33.84;97497.13;5086879;28;20123;-60
2022/10/29 08:48:52;;;;;;;3.05;2.00;;;;;;;22.78;34.98;97493.97;5093176;28;20117;-59
2022/10/29 08:51:24;;;;;;;3.88;1.77;;;;;;;22.58;34.50;97493.59;5093214;28;20134;-61
2022/10/29 08:53:54;;;;;;;1.95;1.63;;;;;;;22.38;34.65;97493.16;5093220;28;20044;-60
2022/10/29 08:56:25;;;;;;;2.25;1.65;;;;;;;22.52;35.16;97491.31;5093111;28;20075;-60
2022/10/29 08:59:01;;;;;;;4.00;1.80;;;;;;;22.48;35.29;97493.34;5093212;28;20044;-60
2022/10/29 09:01:29;;;;;;;2.10;1.80;;;;;;;22.41;36.13;97484.94;5096810;28;20059;-60
2022/10/29 09:03:56;;;;;;;2.85;2.10;;;;;;;22.56;35.82;97485.66;5097157;28;20123;-60
2022/10/29 09:06:37;;;;;;;2.13;1.83;;;;;;;22.68;35.16;97491.94;5097245;28;20048;-60
2022/10/29 09:09:17;;;;;;;2.75;1.90;;;;;;;22.63;35.25;97480.75;5097091;28;20135;-60
2022/10/29 09:11:56;;;;;;;1.95;1.70;;;;;;;22.59;34.60;97474.81;5097066;28;20055;-61
2022/10/29 09:15:03;;;;;;;1.83;1.65;;;;;;;22.56;34.19;97463.47;5097112;28;20094;-60
2022/10/29 09:17:38;;;;;;;2.45;1.80;;;;;;;22.59;34.35;97472.16;5057039;28;20051;-60
2022/10/29 09:20:23;;;;;;;3.20;1.63;;;;;;;22.31;34.92;97462.59;5096968;28;20044;-60
2022/10/29 09:23:02;;;;;;;2.53;1.60;;;;;;;22.43;34.34;97458.19;5096605;28;20052;-60
2022/10/29 09:25:33;;;;;;;1.88;1.55;;;;;;;22.51;33.59;97453.16;5096933;28;20083;-59
2022/10/29 09:28:15;;;;;;;2.00;1.45;;;;;;;22.38;34.44;97455.00;5096878;28;20097;-60
2022/10/29 09:30:50;;;;;;;2.53;1.67;;;;;;;22.24;34.72;97453.34;5096861;28;20044;-60
2022/10/29 09:33:20;;;;;;;2.75;1.75;;;;;;;22.18;34.49;97441.28;5096659;28;20048;-60
2022/10/29 09:35:53;;;;;;;2.33;1.85;;;;;;;22.25;33.88;97439.91;5096731;28;20051;-60
2022/10/29 09:38:25;;;;;;;4.03;1.85;;;;;;;22.22;35.35;97443.63;5096672;28;20082;-60
2022/10/29 09:40:57;;;;;;;3.88;1.88;;;;;;;22.06;34.62;97435.88;5096627;28;20048;-61
2022/10/29 09:43:38;;;;;;;4.18;1.55;;;;;;;22.06;34.87;97435.00;5096610;28;20109;-59
2022/10/29 09:46:13;;;;;;;2.33;1.52;;;;;;;22.02;35.35;97434.41;5096511;28;20044;-60
2022/10/29 09:48:52;;;;;;;2.47;1.63;;;;;;;22.03;35.35;97435.25;5096543;28;20055;-60
2022/10/29 09:51:34;;;;;;;4.38;2.33;;;;;;;22.07;35.81;97432.25;5096334;28;20083;-61
2022/10/29 09:54:05;;;;;;;4.70;2.83;;;;;;;21.95;37.28;97422.47;5096359;28;20054;-60
2022/10/29 09:56:33;;;;;;;3.75;2.50;;;;;;;21.84;36.74;97417.91;5096243;28;20545;-60
2022/10/29 09:59:12;;;;;;;3.15;2.13;;;;;;;21.77;36.77;97419.31;5096195;28;20547;-61
2022/10/29 10:01:40;;;;;;;3.15;2.03;;;;;;;21.47;36.30;97421.31;5096143;28;20056;-59
2022/10/29 10:04:17;;;;;;;4.22;2.40;;;;;;;21.32;37.14;97416.09;5096167;28;20051;-60
2022/10/29 10:07:04;;;;;;;3.53;2.28;;;;;;;21.49;37.63;97403.41;5096338;28;20040;-60
2022/10/29 10:09:51;;;;;;;3.90;2.45;;;;;;;21.69;37.85;97404.69;5096091;28;20106;-61
2022/10/29 10:12:20;;;;;;;2.20;1.98;;;;;;;21.69;36.26;97399.38;5095676;28;20131;-60
2022/10/29 10:14:48;;;;;;;2.47;1.85;;;;;;;21.67;36.26;97398.59;5096093;28;20048;-60
2022/10/29 10:17:15;;;;;;;3.45;1.95;;;;;;;21.68;36.87;97399.47;5095944;28;20046;-60
2022/10/29 10:19:47;;;;;;;4.82;2.30;;;;;;;21.59;35.81;97392.97;5095772;28;20466;-60
2022/10/29 10:22:20;;;;;;;4.32;2.10;;;;;;;21.57;36.83;97384.25;5095543;28;20102;-60
2022/10/29 10:24:49;;;;;;;3.75;2.55;;;;;;;21.69;36.44;97386.06;5095850;28;20482;-60
2022/10/29 10:27:31;;;;;;;5.20;2.20;;;;;;;21.74;36.07;97383.06;5095759;28;20051;-60
2022/10/29 10:30:16;;;;;;;10.68;2.50;;;;;;;21.65;36.21;97376.59;5095810;28;20051;-60
2022/10/29 10:32:44;;;;;;;3.65;2.28;;;;;;;21.68;36.42;97376.38;5095721;28;20052;-60
2022/10/29 10:38:39;;;;;;;4.35;2.15;;;;;;;21.56;36.45;97372.75;5095677;28;20055;-61
2022/10/29 10:41:11;;;;;;;2.55;1.75;;;;;;;21.50;36.11;97369.66;5095541;28;20055;-60
2022/10/29 10:43:43;;;;;;;3.30;2.10;;;;;;;21.31;36.91;97370.94;5095282;28;20490;-60
2022/10/29 10:46:20;;;;;;;2.38;2.03;;;;;;;21.26;37.30;97360.63;5095263;28;20094;-60
2022/10/29 10:48:58;;;;;;;4.00;2.17;;;;;;;21.18;37.56;97366.47;5095264;28;20588;-60
2022/10/29 10:51:29;;;;;;;5.57;1.92;;;;;;;21.20;36.76;97364.53;5095348;28;20048;-60
2022/10/29 10:53:58;;;;;;;3.67;2.17;;;;;;;21.23;36.17;97359.97;5095436;28;20056;-60
2022/10/29 10:56:30;;;;;;;4.43;2.17;;;;;;;21.14;36.23;97358.78;5095172;28;20047;-60
2022/10/29 10:59:05;;;;;;;4.05;2.05;;;;;;;21.00;36.69;97354.41;5095093;28;20516;-60
2022/10/29 11:01:40;;;;;;;2.97;1.80;;;;;;;20.94;36.83;97358.34;5095097;28;20440;-60
2022/10/29 11:04:16;;;;;;;3.97;2.15;;;;;;;21.02;37.42;97348.06;5095039;28;20052;-60
2022/10/29 11:06:48;;;;;;;6.97;2.53;;;;;;;21.08;36.95;97350.25;5094783;28;20044;-60
2022/10/29 11:09:23;;;;;;;3.10;2.17;;;;;;;21.04;36.87;97347.94;5094868;28;20497;-59
2022/10/29 11:11:59;;;;;;;3.90;2.25;;;;;;;21.02;36.94;97347.19;5094887;28;20204;-60
2022/10/29 11:14:31;;;;;;;3.05;2.45;;;;;;;21.05;36.98;97344.31;5094763;28;20048;-60
2022/10/29 11:17:01;;;;;;;2.88;2.10;;;;;;;21.03;37.17;97340.91;5094575;28;20048;-60
2022/10/29 11:19:34;;;;;;;2.33;2.13;;;;;;;21.02;37.20;97337.41;5094571;28;20052;-60
2022/10/29 11:22:15;;;;;;;3.80;2.10;;;;;;;21.01;36.27;97337.50;5094068;28;20055;-59
2022/10/29 11:24:47;;;;;;;4.95;2.20;;;;;;;20.82;36.95;97325.44;5094401;28;20048;-60
2022/10/29 11:27:25;;;;;;;4.15;2.10;;;;;;;20.71;37.59;97324.34;5094553;28;20450;-60
2022/10/29 11:30:02;;;;;;;3.45;2.55;;;;;;;20.76;37.18;97329.34;5094611;28;20052;-61
2022/10/29 11:32:41;;;;;;;2.92;2.03;;;;;;;20.66;36.95;97321.16;5094361;28;20131;-60
2022/10/29 11:35:12;;;;;;;3.60;2.58;;;;;;;20.70;36.99;97321.78;5094363;28;20052;-60
2022/10/29 11:37:49;;;;;;;4.03;2.60;;;;;;;20.77;37.55;97309.78;5094408;28;20135;-60
2022/10/29 11:40:22;;;;;;;5.28;2.67;;;;;;;20.74;37.62;97306.50;5094340;28;20105;-60
2022/10/29 11:42:51;;;;;;;4.32;2.95;;;;;;;20.79;37.84;97302.56;5094159;28;20048;-60
2022/10/29 11:45:26;;;;;;;4.75;2.63;;;;;;;20.83;37.63;97304.06;5094087;28;20221;-60
2022/10/29 11:48:12;;;;;;;3.72;2.63;;;;;;;20.79;36.63;97299.91;5094450;28;20052;-61
2022/10/29 11:50:48;;;;;;;4.28;2.67;;;;;;;20.79;37.61;97299.91;5094072;28;20131;-60
2022/10/29 11:53:28;;;;;;;3.83;2.50;;;;;;;20.81;37.16;97299.81;5094094;28;20092;-60
2022/10/29 11:56:04;;;;;;;;;;;;;;;20.86;37.28;97288.88;5094480;28;20052;-60
2022/10/29 11:58:41;;;;;;;4.70;2.63;;;;;;;20.92;37.14;97297.28;5093966;28;19920;-60